sensor_id;sensor_type;location;lat;lon;timestamp;noise_LAeq;noise_LA_min;noise_LA_max;noise_LA01;noise_LA95
45651;Laerm;31365;48.858;8.530;2023-05-07T00:00:18;54.11;33.90;77.33;;
45651;Laerm;31365;48.858;8.530;2023-05-07T00:02:46;54.69;33.90;73.09;;
45651;Laerm;31365;48.858;8.530;2023-05-07T00:05:16;39.44;32.35;44.23;;
45651;Laerm;31365;48.858;8.530;2023-05-07T00:07:46;55.49;33.90;77.02;;
45651;Laerm;31365;48.858;8.530;2023-05-07T00:10:14;50.59;35.66;70.04;;
45651;Laerm;31365;48.858;8.530;2023-05-07T00:12:42;53.38;35.66;72.66;;
45651;Laerm;31365;48.858;8.530;2023-05-07T00:15:11;55.07;35.04;73.68;;
45651;Laerm;31365;48.858;8.530;2023-05-07T00:17:39;58.10;34.31;79.41;;
45651;Laerm;31365;48.858;8.530;2023-05-07T00:20:09;74.08;35.94;95.60;;
45651;Laerm;31365;48.858;8.530;2023-05-07T00:22:39;53.16;35.36;73.68;;
45651;Laerm;31365;48.858;8.530;2023-05-07T00:25:08;54.12;36.20;74.10;;
45651;Laerm;31365;48.858;8.530;2023-05-07T00:27:37;49.51;33.90;68.08;;
45651;Laerm;31365;48.858;8.530;2023-05-07T00:30:07;40.82;35.04;48.78;;
45651;Laerm;31365;48.858;8.530;2023-05-07T00:32:35;53.32;33.90;75.12;;
45651;Laerm;31365;48.858;8.530;2023-05-07T00:35:05;51.09;34.69;69.97;;
45651;Laerm;31365;48.858;8.530;2023-05-07T00:37:34;54.07;35.94;74.98;;
45651;Laerm;31365;48.858;8.530;2023-05-07T00:40:06;40.64;34.31;50.51;;
45651;Laerm;31365;48.858;8.530;2023-05-07T00:42:36;55.79;32.35;76.26;;
45651;Laerm;31365;48.858;8.530;2023-05-07T00:45:06;40.72;33.90;46.48;;
45651;Laerm;31365;48.858;8.530;2023-05-07T00:47:34;53.27;35.04;73.89;;
45651;Laerm;31365;48.858;8.530;2023-05-07T00:50:04;64.68;37.12;84.70;;
45651;Laerm;31365;48.858;8.530;2023-05-07T00:52:33;50.11;37.32;62.73;;
45651;Laerm;31365;48.858;8.530;2023-05-07T00:55:06;51.91;35.94;73.77;;
45651;Laerm;31365;48.858;8.530;2023-05-07T00:57:37;54.86;32.35;77.28;;
45651;Laerm;31365;48.858;8.530;2023-05-07T01:00:09;39.64;29.92;43.64;;
45651;Laerm;31365;48.858;8.530;2023-05-07T01:02:40;49.70;36.20;72.02;;
45651;Laerm;31365;48.858;8.530;2023-05-07T01:05:12;50.92;31.68;69.22;;
45651;Laerm;31365;48.858;8.530;2023-05-07T01:07:43;53.90;33.90;71.03;;
45651;Laerm;31365;48.858;8.530;2023-05-07T01:10:13;50.40;30.89;71.51;;
45651;Laerm;31365;48.858;8.530;2023-05-07T01:12:43;38.16;30.89;42.71;;
45651;Laerm;31365;48.858;8.530;2023-05-07T01:15:13;56.14;31.68;76.25;;
45651;Laerm;31365;48.858;8.530;2023-05-07T01:17:42;38.79;31.68;42.03;;
45651;Laerm;31365;48.858;8.530;2023-05-07T01:20:18;38.46;32.35;41.38;;
45651;Laerm;31365;48.858;8.530;2023-05-07T01:22:50;38.49;29.92;41.22;;
45651;Laerm;31365;48.858;8.530;2023-05-07T01:25:19;51.26;32.35;70.50;;
45651;Laerm;31365;48.858;8.530;2023-05-07T01:27:51;50.68;33.44;71.02;;
45651;Laerm;31365;48.858;8.530;2023-05-07T01:30:23;56.61;34.31;79.06;;
45651;Laerm;31365;48.858;8.530;2023-05-07T01:33:01;39.09;32.35;44.15;;
45651;Laerm;31365;48.858;8.530;2023-05-07T01:35:38;38.90;30.89;49.18;;
45651;Laerm;31365;48.858;8.530;2023-05-07T01:38:10;39.02;32.35;42.93;;
45651;Laerm;31365;48.858;8.530;2023-05-07T01:40:38;51.46;31.68;72.91;;
45651;Laerm;31365;48.858;8.530;2023-05-07T01:43:07;55.07;32.93;75.38;;
45651;Laerm;31365;48.858;8.530;2023-05-07T01:45:37;51.89;32.35;74.05;;
45651;Laerm;31365;48.858;8.530;2023-05-07T01:48:09;39.56;34.31;42.76;;
45651;Laerm;31365;48.858;8.530;2023-05-07T01:50:38;56.60;32.93;76.71;;
45651;Laerm;31365;48.858;8.530;2023-05-07T01:53:07;42.20;33.44;61.98;;
45651;Laerm;31365;48.858;8.530;2023-05-07T01:55:36;43.17;33.90;62.95;;
45651;Laerm;31365;48.858;8.530;2023-05-07T01:58:05;49.71;33.90;66.80;;
45651;Laerm;31365;48.858;8.530;2023-05-07T02:00:34;56.25;35.04;73.28;;
45651;Laerm;31365;48.858;8.530;2023-05-07T02:03:02;46.98;32.35;65.18;;
45651;Laerm;31365;48.858;8.530;2023-05-07T02:05:41;39.32;32.93;50.93;;
45651;Laerm;31365;48.858;8.530;2023-05-07T02:08:19;39.21;31.68;46.71;;
45651;Laerm;31365;48.858;8.530;2023-05-07T02:10:49;39.42;33.44;55.51;;
45651;Laerm;31365;48.858;8.530;2023-05-07T02:13:18;45.03;32.35;61.91;;
45651;Laerm;31365;48.858;8.530;2023-05-07T02:15:47;54.08;31.68;70.23;;
45651;Laerm;31365;48.858;8.530;2023-05-07T02:18:18;69.38;30.89;92.28;;
45651;Laerm;31365;48.858;8.530;2023-05-07T02:20:47;43.54;30.89;67.37;;
45651;Laerm;31365;48.858;8.530;2023-05-07T02:23:16;39.53;32.35;50.64;;
45651;Laerm;31365;48.858;8.530;2023-05-07T02:25:44;39.14;30.89;52.21;;
45651;Laerm;31365;48.858;8.530;2023-05-07T02:28:14;57.69;33.44;79.35;;
45651;Laerm;31365;48.858;8.530;2023-05-07T02:30:52;39.81;32.93;48.55;;
45651;Laerm;31365;48.858;8.530;2023-05-07T02:33:21;72.06;35.36;95.57;;
45651;Laerm;31365;48.858;8.530;2023-05-07T02:35:50;38.92;33.44;45.57;;
45651;Laerm;31365;48.858;8.530;2023-05-07T02:38:19;40.05;28.67;53.76;;
45651;Laerm;31365;48.858;8.530;2023-05-07T02:40:47;50.74;32.35;69.17;;
45651;Laerm;31365;48.858;8.530;2023-05-07T02:43:17;51.49;34.31;71.81;;
45651;Laerm;31365;48.858;8.530;2023-05-07T02:45:48;39.84;34.31;49.50;;
45651;Laerm;31365;48.858;8.530;2023-05-07T02:48:16;53.56;34.31;73.38;;
45651;Laerm;31365;48.858;8.530;2023-05-07T02:50:44;48.31;32.93;66.33;;
45651;Laerm;31365;48.858;8.530;2023-05-07T02:53:14;48.90;32.35;64.77;;
45651;Laerm;31365;48.858;8.530;2023-05-07T02:55:42;48.89;32.93;66.77;;
45651;Laerm;31365;48.858;8.530;2023-05-07T02:58:10;44.83;33.90;63.26;;
45651;Laerm;31365;48.858;8.530;2023-05-07T03:00:42;45.49;35.66;63.68;;
45651;Laerm;31365;48.858;8.530;2023-05-07T03:03:20;41.59;33.44;62.81;;
45651;Laerm;31365;48.858;8.530;2023-05-07T03:05:48;52.79;33.44;71.37;;
45651;Laerm;31365;48.858;8.530;2023-05-07T03:08:16;56.07;35.04;73.62;;
45651;Laerm;31365;48.858;8.530;2023-05-07T03:10:45;55.14;33.90;75.45;;
45651;Laerm;31365;48.858;8.530;2023-05-07T03:13:16;46.82;35.36;65.35;;
45651;Laerm;31365;48.858;8.530;2023-05-07T03:15:47;53.75;34.69;75.28;;
45651;Laerm;31365;48.858;8.530;2023-05-07T03:18:15;50.38;37.88;66.19;;
45651;Laerm;31365;48.858;8.530;2023-05-07T03:20:43;52.84;37.12;70.78;;
45651;Laerm;31365;48.858;8.530;2023-05-07T03:23:12;50.48;37.12;65.54;;
45651;Laerm;31365;48.858;8.530;2023-05-07T03:29:28;55.26;37.88;75.58;;
45651;Laerm;31365;48.858;8.530;2023-05-07T03:31:58;47.59;36.20;59.62;;
45651;Laerm;31365;48.858;8.530;2023-05-07T03:34:27;57.28;38.21;77.87;;
45651;Laerm;31365;48.858;8.530;2023-05-07T03:36:55;54.89;38.05;75.57;;
45651;Laerm;31365;48.858;8.530;2023-05-07T03:39:24;53.97;37.70;71.71;;
45651;Laerm;31365;48.858;8.530;2023-05-07T03:41:52;51.76;37.32;71.52;;
45651;Laerm;31365;48.858;8.530;2023-05-07T03:44:21;52.31;36.69;69.93;;
45651;Laerm;31365;48.858;8.530;2023-05-07T03:46:50;48.74;36.45;63.84;;
45651;Laerm;31365;48.858;8.530;2023-05-07T03:49:20;50.25;36.45;63.40;;
45651;Laerm;31365;48.858;8.530;2023-05-07T03:51:49;48.47;36.69;61.50;;
45651;Laerm;31365;48.858;8.530;2023-05-07T03:54:17;44.13;35.94;61.01;;
45651;Laerm;31365;48.858;8.530;2023-05-07T03:56:46;51.71;36.20;67.96;;
45651;Laerm;31365;48.858;8.530;2023-05-07T03:59:15;57.26;38.67;71.36;;
45651;Laerm;31365;48.858;8.530;2023-05-07T04:01:45;46.30;37.52;61.97;;
45651;Laerm;31365;48.858;8.530;2023-05-07T04:04:16;54.49;37.88;68.75;;
45651;Laerm;31365;48.858;8.530;2023-05-07T04:06:46;53.33;36.91;76.77;;
45651;Laerm;31365;48.858;8.530;2023-05-07T04:09:15;56.48;37.52;76.21;;
45651;Laerm;31365;48.858;8.530;2023-05-07T04:11:45;53.39;36.45;71.23;;
45651;Laerm;31365;48.858;8.530;2023-05-07T04:14:14;55.83;36.20;77.76;;
45651;Laerm;31365;48.858;8.530;2023-05-07T04:16:42;48.87;35.66;70.92;;
45651;Laerm;31365;48.858;8.530;2023-05-07T04:19:10;56.26;35.36;75.00;;
45651;Laerm;31365;48.858;8.530;2023-05-07T04:21:39;44.35;32.93;65.94;;
45651;Laerm;31365;48.858;8.530;2023-05-07T04:24:08;49.69;35.94;70.15;;
45651;Laerm;31365;48.858;8.530;2023-05-07T04:26:37;47.04;33.44;66.36;;
45651;Laerm;31365;48.858;8.530;2023-05-07T04:31:34;59.39;39.81;80.33;;
45651;Laerm;31365;48.858;8.530;2023-05-07T04:34:02;46.04;36.45;63.43;;
45651;Laerm;31365;48.858;8.530;2023-05-07T04:36:30;54.87;36.45;72.36;;
45651;Laerm;31365;48.858;8.530;2023-05-07T04:39:10;42.32;35.36;60.52;;
45651;Laerm;31365;48.858;8.530;2023-05-07T04:41:41;55.55;35.66;76.10;;
45651;Laerm;31365;48.858;8.530;2023-05-07T04:44:09;50.02;36.91;66.45;;
45651;Laerm;31365;48.858;8.530;2023-05-07T04:46:37;54.17;36.91;73.83;;
45651;Laerm;31365;48.858;8.530;2023-05-07T04:49:06;58.31;37.70;76.96;;
45651;Laerm;31365;48.858;8.530;2023-05-07T04:51:34;44.27;36.45;59.06;;
45651;Laerm;31365;48.858;8.530;2023-05-07T04:54:02;54.51;37.12;72.04;;
45651;Laerm;31365;48.858;8.530;2023-05-07T04:56:32;51.10;35.94;66.84;;
45651;Laerm;31365;48.858;8.530;2023-05-07T04:59:01;53.12;37.12;70.65;;
45651;Laerm;31365;48.858;8.530;2023-05-07T05:01:30;49.57;37.12;68.98;;
45651;Laerm;31365;48.858;8.530;2023-05-07T05:03:58;51.57;35.94;67.45;;
45651;Laerm;31365;48.858;8.530;2023-05-07T05:06:28;54.40;35.94;77.00;;
45651;Laerm;31365;48.858;8.530;2023-05-07T05:08:58;54.07;37.52;74.59;;
45651;Laerm;31365;48.858;8.530;2023-05-07T05:11:29;59.55;37.70;79.89;;
45651;Laerm;31365;48.858;8.530;2023-05-07T05:13:59;57.04;37.88;76.46;;
45651;Laerm;31365;48.858;8.530;2023-05-07T05:16:28;55.92;38.05;75.36;;
45651;Laerm;31365;48.858;8.530;2023-05-07T05:18:57;59.22;37.52;77.00;;
45651;Laerm;31365;48.858;8.530;2023-05-07T05:21:26;51.79;39.08;68.45;;
45651;Laerm;31365;48.858;8.530;2023-05-07T05:24:00;55.81;36.69;74.23;;
45651;Laerm;31365;48.858;8.530;2023-05-07T05:26:28;56.30;37.32;74.14;;
45651;Laerm;31365;48.858;8.530;2023-05-07T05:28:59;57.51;35.36;76.06;;
45651;Laerm;31365;48.858;8.530;2023-05-07T05:31:29;53.86;35.94;68.21;;
45651;Laerm;31365;48.858;8.530;2023-05-07T05:33:58;56.63;36.20;73.27;;
45651;Laerm;31365;48.858;8.530;2023-05-07T05:36:26;48.91;36.45;65.25;;
45651;Laerm;31365;48.858;8.530;2023-05-07T05:38:56;55.06;35.66;73.59;;
45651;Laerm;31365;48.858;8.530;2023-05-07T05:41:25;59.57;36.20;73.98;;
45651;Laerm;31365;48.858;8.530;2023-05-07T05:43:53;50.75;35.94;67.70;;
45651;Laerm;31365;48.858;8.530;2023-05-07T05:46:32;59.01;35.94;77.20;;
45651;Laerm;31365;48.858;8.530;2023-05-07T05:49:24;57.89;32.35;75.88;;
45651;Laerm;31365;48.858;8.530;2023-05-07T05:51:53;49.59;35.04;68.89;;
45651;Laerm;31365;48.858;8.530;2023-05-07T05:54:24;49.59;35.04;68.89;;
45651;Laerm;31365;48.858;8.530;2023-05-07T05:56:53;57.46;37.52;76.93;;
45651;Laerm;31365;48.858;8.530;2023-05-07T05:59:23;57.60;38.05;73.29;;
45651;Laerm;31365;48.858;8.530;2023-05-07T06:01:54;56.81;36.20;77.30;;
45651;Laerm;31365;48.858;8.530;2023-05-07T06:04:23;56.23;38.05;72.04;;
45651;Laerm;31365;48.858;8.530;2023-05-07T06:07:16;61.02;38.52;79.76;;
45651;Laerm;31365;48.858;8.530;2023-05-07T06:09:44;57.70;37.88;74.86;;
45651;Laerm;31365;48.858;8.530;2023-05-07T06:12:13;61.39;39.21;74.73;;
45651;Laerm;31365;48.858;8.530;2023-05-07T06:14:43;59.83;37.12;77.35;;
45651;Laerm;31365;48.858;8.530;2023-05-07T06:17:13;57.16;37.52;70.90;;
45651;Laerm;31365;48.858;8.530;2023-05-07T06:19:41;55.45;36.20;74.71;;
45651;Laerm;31365;48.858;8.530;2023-05-07T06:22:11;55.61;35.94;75.80;;
45651;Laerm;31365;48.858;8.530;2023-05-07T06:24:40;58.24;37.52;77.41;;
45651;Laerm;31365;48.858;8.530;2023-05-07T06:27:09;59.39;36.20;73.97;;
45651;Laerm;31365;48.858;8.530;2023-05-07T06:29:38;60.43;39.46;75.61;;
45651;Laerm;31365;48.858;8.530;2023-05-07T06:32:14;56.02;37.88;72.72;;
45651;Laerm;31365;48.858;8.530;2023-05-07T06:34:44;55.64;38.37;71.20;;
45651;Laerm;31365;48.858;8.530;2023-05-07T06:37:14;59.81;38.21;74.19;;
45651;Laerm;31365;48.858;8.530;2023-05-07T06:39:51;62.76;41.38;77.66;;
45651;Laerm;31365;48.858;8.530;2023-05-07T06:42:20;57.21;40.03;72.91;;
45651;Laerm;31365;48.858;8.530;2023-05-07T06:44:50;59.73;39.46;79.06;;
45651;Laerm;31365;48.858;8.530;2023-05-07T06:47:20;58.88;38.67;76.63;;
45651;Laerm;31365;48.858;8.530;2023-05-07T06:49:52;60.09;38.95;75.75;;
45651;Laerm;31365;48.858;8.530;2023-05-07T06:52:24;60.52;37.35;78.49;;
45651;Laerm;31365;48.858;8.530;2023-05-07T06:54:53;59.22;41.38;76.01;;
45651;Laerm;31365;48.858;8.530;2023-05-07T06:57:24;62.87;41.22;79.33;;
45651;Laerm;31365;48.858;8.530;2023-05-07T06:59:52;62.38;42.29;75.75;;
45651;Laerm;31365;48.858;8.530;2023-05-07T07:02:22;62.25;38.52;79.10;;
45651;Laerm;31365;48.858;8.530;2023-05-07T07:04:50;61.84;38.05;80.77;;
45651;Laerm;31365;48.858;8.530;2023-05-07T07:07:20;59.14;38.67;76.61;;
45651;Laerm;31365;48.858;8.530;2023-05-07T07:09:49;62.45;38.05;81.57;;
45651;Laerm;31365;48.858;8.530;2023-05-07T07:12:19;61.08;38.05;76.38;;
45651;Laerm;31365;48.858;8.530;2023-05-07T07:14:47;62.55;42.09;76.37;;
45651;Laerm;31365;48.858;8.530;2023-05-07T07:17:16;62.75;38.95;77.64;;
45651;Laerm;31365;48.858;8.530;2023-05-07T07:19:45;63.48;42.16;79.82;;
45651;Laerm;31365;48.858;8.530;2023-05-07T07:22:14;61.86;39.46;75.40;;
45651;Laerm;31365;48.858;8.530;2023-05-07T07:24:43;56.81;38.05;72.73;;
45651;Laerm;31365;48.858;8.530;2023-05-07T07:27:13;60.98;41.14;79.39;;
45651;Laerm;31365;48.858;8.530;2023-05-07T07:29:42;68.82;40.80;88.07;;
45651;Laerm;31365;48.858;8.530;2023-05-07T07:32:10;61.07;42.09;76.36;;
45651;Laerm;31365;48.858;8.530;2023-05-07T07:34:39;61.42;39.89;75.59;;
45651;Laerm;31365;48.858;8.530;2023-05-07T07:37:10;62.06;39.58;77.16;;
45651;Laerm;31365;48.858;8.530;2023-05-07T07:39:38;66.05;38.81;83.53;;
45651;Laerm;31365;48.858;8.530;2023-05-07T07:42:08;59.45;39.92;76.57;;
45651;Laerm;31365;48.858;8.530;2023-05-07T07:44:36;62.71;39.21;80.08;;
45651;Laerm;31365;48.858;8.530;2023-05-07T07:47:08;60.29;39.08;75.63;;
45651;Laerm;31365;48.858;8.530;2023-05-07T07:49:37;61.35;41.46;76.04;;
45651;Laerm;31365;48.858;8.530;2023-05-07T07:52:07;57.98;36.91;74.26;;
45651;Laerm;31365;48.858;8.530;2023-05-07T07:54:38;60.16;37.52;75.31;;
45651;Laerm;31365;48.858;8.530;2023-05-07T07:57:07;63.46;46.20;81.26;;
45651;Laerm;31365;48.858;8.530;2023-05-07T07:59:36;56.66;38.52;75.09;;
45651;Laerm;31365;48.858;8.530;2023-05-07T08:02:05;63.79;40.62;81.15;;
45651;Laerm;31365;48.858;8.530;2023-05-07T08:04:35;61.23;43.63;75.06;;
45651;Laerm;31365;48.858;8.530;2023-05-07T08:07:06;60.07;41.06;74.88;;
45651;Laerm;31365;48.858;8.530;2023-05-07T08:09:39;59.18;41.22;78.16;;
45651;Laerm;31365;48.858;8.530;2023-05-07T08:14:38;60.52;38.81;75.48;;
45651;Laerm;31365;48.858;8.530;2023-05-07T08:17:07;61.06;38.52;76.83;;
45651;Laerm;31365;48.858;8.530;2023-05-07T08:19:37;57.01;37.88;72.47;;
45651;Laerm;31365;48.858;8.530;2023-05-07T08:22:10;63.18;41.75;79.94;;
45651;Laerm;31365;48.858;8.530;2023-05-07T08:24:40;58.37;43.19;73.45;;
45651;Laerm;31365;48.858;8.530;2023-05-07T08:27:09;65.19;44.03;84.58;;
45651;Laerm;31365;48.858;8.530;2023-05-07T08:29:40;58.98;42.98;72.73;;
45651;Laerm;31365;48.858;8.530;2023-05-07T08:32:08;58.88;38.67;71.72;;
45651;Laerm;31365;48.858;8.530;2023-05-07T08:34:37;56.85;36.91;69.62;;
45651;Laerm;31365;48.858;8.530;2023-05-07T08:37:06;57.73;37.88;72.13;;
45651;Laerm;31365;48.858;8.530;2023-05-07T08:39:35;63.91;45.57;80.02;;
45651;Laerm;31365;48.858;8.530;2023-05-07T08:42:12;65.66;40.23;87.54;;
45651;Laerm;31365;48.858;8.530;2023-05-07T08:44:45;59.71;39.81;74.41;;
45651;Laerm;31365;48.858;8.530;2023-05-07T08:47:17;60.42;38.37;78.52;;
45651;Laerm;31365;48.858;8.530;2023-05-07T08:49:49;59.52;40.13;80.48;;
45651;Laerm;31365;48.858;8.530;2023-05-07T08:52:18;64.41;40.71;83.87;;
45651;Laerm;31365;48.858;8.530;2023-05-07T08:54:47;62.96;40.33;78.08;;
45651;Laerm;31365;48.858;8.530;2023-05-07T08:57:17;60.22;38.95;74.50;;
45651;Laerm;31365;48.858;8.530;2023-05-07T08:59:47;59.62;38.67;72.94;;
45651;Laerm;31365;48.858;8.530;2023-05-07T09:02:15;61.77;41.61;75.21;;
45651;Laerm;31365;48.858;8.530;2023-05-07T09:04:45;60.65;39.81;74.57;;
45651;Laerm;31365;48.858;8.530;2023-05-07T09:07:14;60.94;39.81;78.26;;
45651;Laerm;31365;48.858;8.530;2023-05-07T09:09:44;61.97;39.34;76.38;;
45651;Laerm;31365;48.858;8.530;2023-05-07T09:12:14;63.74;42.93;79.99;;
45651;Laerm;31365;48.858;8.530;2023-05-07T09:14:44;60.03;38.37;76.09;;
45651;Laerm;31365;48.858;8.530;2023-05-07T09:17:15;61.07;40.03;75.39;;
45651;Laerm;31365;48.858;8.530;2023-05-07T09:19:45;62.79;39.46;77.58;;
45651;Laerm;31365;48.858;8.530;2023-05-07T09:22:14;65.90;40.53;87.35;;
45651;Laerm;31365;48.858;8.530;2023-05-07T09:25:08;62.81;40.33;81.94;;
45651;Laerm;31365;48.858;8.530;2023-05-07T09:27:38;64.56;42.93;82.90;;
45651;Laerm;31365;48.858;8.530;2023-05-07T09:30:10;60.70;40.98;77.77;;
45651;Laerm;31365;48.858;8.530;2023-05-07T09:32:39;60.51;39.58;78.82;;
45651;Laerm;31365;48.858;8.530;2023-05-07T09:35:17;63.27;39.08;78.64;;
45651;Laerm;31365;48.858;8.530;2023-05-07T09:37:53;64.28;42.41;79.26;;
45651;Laerm;31365;48.858;8.530;2023-05-07T09:40:23;63.97;41.82;82.52;;
45651;Laerm;31365;48.858;8.530;2023-05-07T09:43:09;61.87;41.75;75.15;;
45651;Laerm;31365;48.858;8.530;2023-05-07T09:45:43;59.83;42.16;73.34;;
45651;Laerm;31365;48.858;8.530;2023-05-07T09:48:17;66.26;41.75;83.62;;
45651;Laerm;31365;48.858;8.530;2023-05-07T09:50:51;66.60;42.16;87.01;;
45651;Laerm;31365;48.858;8.530;2023-05-07T09:53:25;61.59;40.89;77.63;;
45651;Laerm;31365;48.858;8.530;2023-05-07T09:55:56;61.60;41.22;77.28;;
45651;Laerm;31365;48.858;8.530;2023-05-07T09:58:26;63.39;39.81;79.83;;
45651;Laerm;31365;48.858;8.530;2023-05-07T10:00:57;63.00;41.26;76.64;;
45651;Laerm;31365;48.858;8.530;2023-05-07T10:03:29;67.18;43.04;85.51;;
45651;Laerm;31365;48.858;8.530;2023-05-07T10:06:05;59.62;39.34;76.35;;
45651;Laerm;31365;48.858;8.530;2023-05-07T10:08:33;66.21;42.93;80.07;;
45651;Laerm;31365;48.858;8.530;2023-05-07T10:11:06;65.11;44.97;76.35;;
45651;Laerm;31365;48.858;8.530;2023-05-07T10:13:34;60.65;41.68;77.66;;
45651;Laerm;31365;48.858;8.530;2023-05-07T10:16:08;61.51;42.47;76.33;;
45651;Laerm;31365;48.858;8.530;2023-05-07T10:18:45;61.56;40.89;75.53;;
45651;Laerm;31365;48.858;8.530;2023-05-07T10:21:20;62.51;40.43;78.45;;
45651;Laerm;31365;48.858;8.530;2023-05-07T10:23:58;62.40;39.34;76.91;;
45651;Laerm;31365;48.858;8.530;2023-05-07T10:26:32;64.24;42.22;82.88;;
45651;Laerm;31365;48.858;8.530;2023-05-07T10:29:11;64.73;40.23;81.60;;
45651;Laerm;31365;48.858;8.530;2023-05-07T10:32:11;62.52;41.22;81.24;;
45651;Laerm;31365;48.858;8.530;2023-05-07T10:34:47;62.57;40.23;78.65;;
45651;Laerm;31365;48.858;8.530;2023-05-07T10:37:18;61.60;40.80;74.70;;
45651;Laerm;31365;48.858;8.530;2023-05-07T10:39:47;69.04;43.49;89.58;;
45651;Laerm;31365;48.858;8.530;2023-05-07T10:42:16;69.06;41.61;89.27;;
45651;Laerm;31365;48.858;8.530;2023-05-07T10:44:49;58.30;40.43;72.01;;
45651;Laerm;31365;48.858;8.530;2023-05-07T10:47:25;61.05;41.38;75.64;;
45651;Laerm;31365;48.858;8.530;2023-05-07T10:50:22;60.91;41.14;77.26;;
45651;Laerm;31365;48.858;8.530;2023-05-07T10:53:24;57.44;38.95;69.86;;
45651;Laerm;31365;48.858;8.530;2023-05-07T10:56:25;62.20;40.62;80.00;;
45651;Laerm;31365;48.858;8.530;2023-05-07T10:59:33;63.30;40.53;80.91;;
45651;Laerm;31365;48.858;8.530;2023-05-07T11:06:13;62.61;41.61;80.25;;
45651;Laerm;31365;48.858;8.530;2023-05-07T11:08:54;60.50;41.22;76.11;;
45651;Laerm;31365;48.858;8.530;2023-05-07T11:11:47;61.21;40.03;75.20;;
45651;Laerm;31365;48.858;8.530;2023-05-07T11:14:45;60.85;42.41;77.25;;
45651;Laerm;31365;48.858;8.530;2023-05-07T11:17:26;60.98;39.92;73.97;;
45651;Laerm;31365;48.858;8.530;2023-05-07T11:20:06;60.87;41.96;74.34;;
45651;Laerm;31365;48.858;8.530;2023-05-07T11:22:48;61.41;41.68;78.56;;
45651;Laerm;31365;48.858;8.530;2023-05-07T11:25:23;63.86;40.96;83.14;;
45651;Laerm;31365;48.858;8.530;2023-05-07T11:28:05;62.47;40.80;78.54;;
45651;Laerm;31365;48.858;8.530;2023-05-07T11:30:35;63.73;41.96;79.36;;
45651;Laerm;31365;48.858;8.530;2023-05-07T11:33:07;60.04;39.58;78.31;;
45651;Laerm;31365;48.858;8.530;2023-05-07T11:35:35;59.37;36.91;73.91;;
45651;Laerm;31365;48.858;8.530;2023-05-07T11:38:06;58.46;39.08;82.44;;
45651;Laerm;31365;48.858;8.530;2023-05-07T11:40:49;60.71;39.46;79.74;;
45651;Laerm;31365;48.858;8.530;2023-05-07T11:43:18;63.51;40.33;82.17;;
45651;Laerm;31365;48.858;8.530;2023-05-07T11:45:47;68.40;40.13;91.79;;
45651;Laerm;31365;48.858;8.530;2023-05-07T11:48:18;60.58;38.67;73.50;;
45651;Laerm;31365;48.858;8.530;2023-05-07T11:50:51;63.44;40.43;79.25;;
45651;Laerm;31365;48.858;8.530;2023-05-07T11:53:20;65.25;43.72;78.51;;
45651;Laerm;31365;48.858;8.530;2023-05-07T11:55:52;63.00;39.70;75.34;;
45651;Laerm;31365;48.858;8.530;2023-05-07T11:58:23;60.80;39.08;74.25;;
45651;Laerm;31365;48.858;8.530;2023-05-07T12:00:53;71.41;39.92;95.72;;
45651;Laerm;31365;48.858;8.530;2023-05-07T12:03:23;62.13;41.38;73.57;;
45651;Laerm;31365;48.858;8.530;2023-05-07T12:05:51;63.52;44.07;78.35;;
45651;Laerm;31365;48.858;8.530;2023-05-07T12:08:21;60.10;39.81;72.78;;
45651;Laerm;31365;48.858;8.530;2023-05-07T12:10:50;61.87;42.09;75.45;;
45651;Laerm;31365;48.858;8.530;2023-05-07T12:13:21;64.27;42.47;78.06;;
45651;Laerm;31365;48.858;8.530;2023-05-07T12:15:51;63.74;41.75;78.43;;
45651;Laerm;31365;48.858;8.530;2023-05-07T12:18:22;59.83;38.21;77.00;;
45651;Laerm;31365;48.858;8.530;2023-05-07T12:20:51;61.68;39.46;78.92;;
45651;Laerm;31365;48.858;8.530;2023-05-07T12:23:20;63.32;40.89;76.15;;
45651;Laerm;31365;48.858;8.530;2023-05-07T12:25:48;63.64;42.35;81.79;;
45651;Laerm;31365;48.858;8.530;2023-05-07T12:28:18;60.93;38.81;74.82;;
45651;Laerm;31365;48.858;8.530;2023-05-07T12:30:48;60.41;40.13;73.02;;
45651;Laerm;31365;48.858;8.530;2023-05-07T12:33:18;61.94;38.37;78.26;;
45651;Laerm;31365;48.858;8.530;2023-05-07T12:35:49;65.23;43.29;78.85;;
45651;Laerm;31365;48.858;8.530;2023-05-07T12:38:18;61.65;38.05;77.23;;
45651;Laerm;31365;48.858;8.530;2023-05-07T12:40:49;63.64;40.71;76.76;;
45651;Laerm;31365;48.858;8.530;2023-05-07T12:43:19;64.32;42.22;79.78;;
45651;Laerm;31365;48.858;8.530;2023-05-07T12:45:50;61.90;41.89;78.96;;
45651;Laerm;31365;48.858;8.530;2023-05-07T12:48:20;63.83;41.96;78.38;;
45651;Laerm;31365;48.858;8.530;2023-05-07T12:50:51;64.49;41.38;86.20;;
45651;Laerm;31365;48.858;8.530;2023-05-07T12:53:22;62.38;39.92;75.72;;
45651;Laerm;31365;48.858;8.530;2023-05-07T12:55:52;62.67;42.82;76.62;;
45651;Laerm;31365;48.858;8.530;2023-05-07T12:58:25;73.07;45.33;95.97;;
45651;Laerm;31365;48.858;8.530;2023-05-07T13:00:55;70.15;44.69;91.02;;
45651;Laerm;31365;48.858;8.530;2023-05-07T13:03:29;65.29;49.20;79.59;;
45651;Laerm;31365;48.858;8.530;2023-05-07T13:06:01;65.63;47.63;82.35;;
45651;Laerm;31365;48.858;8.530;2023-05-07T13:08:33;66.30;45.89;78.70;;
45651;Laerm;31365;48.858;8.530;2023-05-07T13:11:03;67.49;45.01;80.57;;
45651;Laerm;31365;48.858;8.530;2023-05-07T13:13:32;70.49;54.26;88.31;;
45651;Laerm;31365;48.858;8.530;2023-05-07T13:16:02;69.85;52.45;83.79;;
45651;Laerm;31365;48.858;8.530;2023-05-07T13:18:32;67.13;44.87;80.68;;
45651;Laerm;31365;48.858;8.530;2023-05-07T13:21:02;66.16;43.86;84.36;;
45651;Laerm;31365;48.858;8.530;2023-05-07T13:23:30;67.31;47.84;79.79;;
45651;Laerm;31365;48.858;8.530;2023-05-07T13:25:58;65.08;44.54;78.74;;
45651;Laerm;31365;48.858;8.530;2023-05-07T13:28:32;64.83;44.80;79.66;;
45651;Laerm;31365;48.858;8.530;2023-05-07T13:31:00;64.01;43.63;77.86;;
45651;Laerm;31365;48.858;8.530;2023-05-07T13:33:29;65.28;44.51;78.85;;
45651;Laerm;31365;48.858;8.530;2023-05-07T13:35:58;62.52;42.53;77.55;;
45651;Laerm;31365;48.858;8.530;2023-05-07T13:38:29;62.48;40.80;78.70;;
45651;Laerm;31365;48.858;8.530;2023-05-07T13:40:57;65.68;42.65;80.07;;
45651;Laerm;31365;48.858;8.530;2023-05-07T13:43:25;64.76;43.44;79.94;;
45651;Laerm;31365;48.858;8.530;2023-05-07T13:45:53;63.17;42.59;77.48;;
45651;Laerm;31365;48.858;8.530;2023-05-07T13:48:22;63.66;42.65;77.50;;
45651;Laerm;31365;48.858;8.530;2023-05-07T13:50:50;65.55;41.96;76.83;;
45651;Laerm;31365;48.858;8.530;2023-05-07T13:53:18;63.83;41.19;77.03;;
45651;Laerm;31365;48.858;8.530;2023-05-07T13:55:48;64.44;41.30;78.91;;
45651;Laerm;31365;48.858;8.530;2023-05-07T13:58:16;61.99;41.22;76.72;;
45651;Laerm;31365;48.858;8.530;2023-05-07T14:00:44;64.04;40.80;77.28;;
45651;Laerm;31365;48.858;8.530;2023-05-07T14:03:13;63.86;40.98;77.60;;
45651;Laerm;31365;48.858;8.530;2023-05-07T14:05:44;61.02;40.62;74.96;;
45651;Laerm;31365;48.858;8.530;2023-05-07T14:08:16;60.64;39.21;77.86;;
45651;Laerm;31365;48.858;8.530;2023-05-07T14:10:47;58.98;40.53;72.68;;
45651;Laerm;31365;48.858;8.530;2023-05-07T14:13:16;62.74;40.62;81.20;;
45651;Laerm;31365;48.858;8.530;2023-05-07T14:15:44;60.70;40.80;77.28;;
45651;Laerm;31365;48.858;8.530;2023-05-07T14:18:14;61.85;41.22;75.87;;